VOE53TN LFRS-LFKC
Flight info
| Callsign | VOE53TN |
|---|---|
| Flight time | 1h 24m |
| Altitude | 37000 |
| Route | LUGEN UM184 TUPAR DCT DIDRU DCT ADATU DCT LERGA DCT TOZOT DCT OTROT DCT RETNO DCT KOLON DCT NARTI UP991 NIRDO |
| Aircraft | A319/M-SDE3FGHIRWY/LB1 |
Departure
| Time | 2026-05-04 19:49 |
|---|---|
| Airport | Nantes Atlantique Airport (LFRS) |
Arrival
| Time | 2026-05-04 21:13 |
|---|---|
| Airport | Calvi Sainte Catherine Airport (LFKC) |
| Time | Latitude | Longitude | Altitude | Speed | Heading |
|---|---|---|---|---|---|
| 2026-05-04 19:19 | 47.15763 | -1.60335 | 98 ft | 0 kts | 127° |
| 2026-05-04 19:42 | 47.15766 | -1.60340 | 97 ft | 3 kts | 127° |
| 2026-05-04 19:42 | 47.15782 | -1.60372 | 98 ft | 4 kts | 127° |
| 2026-05-04 19:43 | 47.15797 | -1.60404 | 98 ft | 4 kts | 109° |
| 2026-05-04 19:43 | 47.15798 | -1.60439 | 97 ft | 4 kts | 41° |
| 2026-05-04 19:43 | 47.15794 | -1.60444 | 96 ft | 0 kts | 30° |
| 2026-05-04 19:45 | 47.15795 | -1.60444 | 97 ft | 1 kts | 30° |
| 2026-05-04 19:46 | 47.15847 | -1.60402 | 96 ft | 16 kts | 28° |
| 2026-05-04 19:46 | 47.15955 | -1.60321 | 96 ft | 18 kts | 27° |
| 2026-05-04 19:46 | 47.16055 | -1.60244 | 94 ft | 14 kts | 27° |
| 2026-05-04 19:46 | 47.16139 | -1.60180 | 94 ft | 13 kts | 27° |
| 2026-05-04 19:47 | 47.16210 | -1.60127 | 95 ft | 11 kts | 27° |
| 2026-05-04 19:47 | 47.16276 | -1.60076 | 95 ft | 12 kts | 27° |
| 2026-05-04 19:47 | 47.16361 | -1.60067 | 90 ft | 14 kts | 349° |
| 2026-05-04 19:47 | 47.16442 | -1.60146 | 87 ft | 15 kts | 288° |
| 2026-05-04 19:48 | 47.16403 | -1.60247 | 91 ft | 11 kts | 207° |
| 2026-05-04 19:48 | 47.16337 | -1.60297 | 92 ft | 13 kts | 207° |
| 2026-05-04 19:48 | 47.16038 | -1.60525 | 94 ft | 88 kts | 207° |
| 2026-05-04 19:48 | 47.15292 | -1.61095 | 100 ft | 151 kts | 208° |
| 2026-05-04 19:49 | 47.14328 | -1.61849 | 648 ft | 158 kts | 208° |
| 2026-05-04 19:49 | 47.13358 | -1.62590 | 1428 ft | 157 kts | 210° |
| 2026-05-04 19:49 | 47.12373 | -1.63332 | 2048 ft | 165 kts | 210° |
| 2026-05-04 19:49 | 47.11170 | -1.63639 | 2393 ft | 194 kts | 167° |
| 2026-05-04 19:50 | 47.10026 | -1.62442 | 2675 ft | 219 kts | 120° |
| 2026-05-04 19:50 | 47.09388 | -1.60287 | 3129 ft | 242 kts | 108° |
| 2026-05-04 19:50 | 47.08829 | -1.57834 | 3767 ft | 262 kts | 106° |
| 2026-05-04 19:50 | 47.08272 | -1.55261 | 4737 ft | 267 kts | 106° |
| 2026-05-04 19:51 | 47.07699 | -1.52652 | 5748 ft | 270 kts | 107° |
| 2026-05-04 19:51 | 47.07016 | -1.50079 | 6751 ft | 273 kts | 117° |
| 2026-05-04 19:51 | 47.05907 | -1.47791 | 7720 ft | 277 kts | 132° |
| 2026-05-04 19:51 | 47.04483 | -1.45868 | 8686 ft | 280 kts | 137° |
| 2026-05-04 19:52 | 47.03018 | -1.43966 | 9675 ft | 283 kts | 137° |
| 2026-05-04 19:52 | 47.01525 | -1.42026 | 10358 ft | 295 kts | 137° |
| 2026-05-04 19:52 | 46.99933 | -1.39949 | 10727 ft | 316 kts | 137° |
| 2026-05-04 19:52 | 46.98272 | -1.37785 | 11439 ft | 324 kts | 137° |
| 2026-05-04 19:53 | 46.96572 | -1.35572 | 12256 ft | 327 kts | 137° |
| 2026-05-04 19:53 | 46.94861 | -1.33347 | 13087 ft | 331 kts | 138° |
| 2026-05-04 19:53 | 46.93132 | -1.31102 | 13892 ft | 335 kts | 139° |
| 2026-05-04 19:53 | 46.91379 | -1.28825 | 14600 ft | 339 kts | 139° |
| 2026-05-04 19:54 | 46.89610 | -1.26526 | 15300 ft | 342 kts | 139° |
| 2026-05-04 19:54 | 46.87842 | -1.24233 | 15995 ft | 346 kts | 139° |
| 2026-05-04 19:54 | 46.86004 | -1.21855 | 16697 ft | 350 kts | 139° |
| 2026-05-04 19:54 | 46.84198 | -1.19518 | 17392 ft | 354 kts | 140° |
| 2026-05-04 19:55 | 46.82347 | -1.17125 | 18093 ft | 357 kts | 140° |
| 2026-05-04 19:55 | 46.80479 | -1.14702 | 18716 ft | 361 kts | 140° |
| 2026-05-04 19:55 | 46.78598 | -1.12259 | 19345 ft | 363 kts | 140° |
| 2026-05-04 19:55 | 46.76706 | -1.09800 | 19990 ft | 366 kts | 140° |
| 2026-05-04 19:56 | 46.74800 | -1.07327 | 20635 ft | 368 kts | 140° |
| 2026-05-04 19:56 | 46.72879 | -1.04841 | 21291 ft | 370 kts | 140° |
| 2026-05-04 19:56 | 46.70945 | -1.02345 | 21937 ft | 373 kts | 141° |
| 2026-05-04 19:56 | 46.68997 | -0.99833 | 22587 ft | 375 kts | 141° |
| 2026-05-04 19:57 | 46.67039 | -0.97313 | 23245 ft | 377 kts | 141° |
| 2026-05-04 19:57 | 46.65072 | -0.94781 | 23817 ft | 379 kts | 141° |
| 2026-05-04 19:57 | 46.63094 | -0.92235 | 24355 ft | 380 kts | 141° |
| 2026-05-04 19:57 | 46.61111 | -0.89693 | 24893 ft | 380 kts | 142° |
| 2026-05-04 19:58 | 46.59124 | -0.87148 | 25417 ft | 381 kts | 142° |
| 2026-05-04 19:58 | 46.57136 | -0.84594 | 25942 ft | 382 kts | 142° |
| 2026-05-04 19:58 | 46.55141 | -0.82022 | 26452 ft | 383 kts | 142° |
| 2026-05-04 19:58 | 46.53147 | -0.79445 | 26953 ft | 385 kts | 142° |
| 2026-05-04 19:59 | 46.51147 | -0.76861 | 27446 ft | 386 kts | 142° |
| 2026-05-04 19:59 | 46.49162 | -0.74308 | 27922 ft | 388 kts | 142° |
| 2026-05-04 19:59 | 46.47134 | -0.71701 | 28384 ft | 390 kts | 142° |
| 2026-05-04 19:59 | 46.45103 | -0.69089 | 28840 ft | 392 kts | 142° |
| 2026-05-04 20:00 | 46.43217 | -0.66195 | 29289 ft | 399 kts | 133° |
| 2026-05-04 20:00 | 46.41684 | -0.62799 | 29709 ft | 409 kts | 122° |
| 2026-05-04 20:00 | 46.40546 | -0.58973 | 30100 ft | 414 kts | 118° |
| 2026-05-04 20:00 | 46.39431 | -0.55117 | 30430 ft | 417 kts | 118° |
| 2026-05-04 20:01 | 46.38300 | -0.51240 | 30739 ft | 419 kts | 118° |
| 2026-05-04 20:01 | 46.37159 | -0.47338 | 31046 ft | 422 kts | 118° |
| 2026-05-04 20:01 | 46.36014 | -0.43417 | 31351 ft | 424 kts | 118° |
| 2026-05-04 20:01 | 46.34862 | -0.39465 | 31660 ft | 427 kts | 118° |
| 2026-05-04 20:02 | 46.33713 | -0.35515 | 32087 ft | 426 kts | 118° |
| 2026-05-04 20:02 | 46.32568 | -0.31567 | 32535 ft | 425 kts | 118° |
| 2026-05-04 20:02 | 46.31426 | -0.27625 | 32964 ft | 424 kts | 118° |
| 2026-05-04 20:02 | 46.30284 | -0.23687 | 33408 ft | 424 kts | 118° |
| 2026-05-04 20:03 | 46.29143 | -0.19775 | 33870 ft | 422 kts | 118° |
| 2026-05-04 20:03 | 46.27998 | -0.15867 | 34241 ft | 422 kts | 118° |
| 2026-05-04 20:03 | 46.26852 | -0.11960 | 34564 ft | 422 kts | 118° |
| 2026-05-04 20:03 | 46.25699 | -0.08044 | 34842 ft | 424 kts | 118° |
| 2026-05-04 20:04 | 46.24543 | -0.04122 | 35103 ft | 425 kts | 118° |
| 2026-05-04 20:04 | 46.23383 | -0.00186 | 35362 ft | 427 kts | 118° |
| 2026-05-04 20:04 | 46.22219 | 0.03763 | 35597 ft | 428 kts | 118° |
| 2026-05-04 20:04 | 46.21050 | 0.07726 | 35827 ft | 430 kts | 118° |
| 2026-05-04 20:05 | 46.19873 | 0.11699 | 36052 ft | 431 kts | 118° |
| 2026-05-04 20:05 | 46.18704 | 0.15634 | 36262 ft | 433 kts | 118° |
| 2026-05-04 20:05 | 46.17514 | 0.19637 | 36474 ft | 435 kts | 118° |
| 2026-05-04 20:05 | 46.16320 | 0.23651 | 36683 ft | 436 kts | 117° |
| 2026-05-04 20:06 | 46.15122 | 0.27676 | 36882 ft | 438 kts | 117° |
| 2026-05-04 20:06 | 46.12715 | 0.35745 | 36948 ft | 437 kts | 117° |
| 2026-05-04 20:07 | 46.10310 | 0.43775 | 36941 ft | 437 kts | 118° |
| 2026-05-04 20:07 | 46.07892 | 0.51809 | 36939 ft | 437 kts | 118° |
| 2026-05-04 20:08 | 46.05474 | 0.59826 | 36939 ft | 437 kts | 118° |
| 2026-05-04 20:08 | 46.03044 | 0.67854 | 36934 ft | 437 kts | 118° |
| 2026-05-04 20:09 | 46.00615 | 0.75871 | 36929 ft | 437 kts | 118° |
| 2026-05-04 20:09 | 45.98176 | 0.83877 | 36925 ft | 437 kts | 118° |
| 2026-05-04 20:10 | 45.95732 | 0.91878 | 36926 ft | 437 kts | 118° |
| 2026-05-04 20:10 | 45.93281 | 0.99886 | 36926 ft | 437 kts | 118° |
| 2026-05-04 20:11 | 45.90824 | 1.07873 | 36928 ft | 438 kts | 118° |
| 2026-05-04 20:11 | 45.88376 | 1.15815 | 36928 ft | 438 kts | 118° |
| 2026-05-04 20:12 | 45.85907 | 1.23800 | 36928 ft | 438 kts | 119° |
| 2026-05-04 20:12 | 45.83433 | 1.31782 | 36926 ft | 438 kts | 119° |
| 2026-05-04 20:13 | 45.80950 | 1.39763 | 36921 ft | 439 kts | 119° |
| 2026-05-04 20:13 | 45.78450 | 1.47747 | 36920 ft | 439 kts | 119° |
| 2026-05-04 20:14 | 45.75948 | 1.55720 | 36907 ft | 439 kts | 119° |
| 2026-05-04 20:14 | 45.73441 | 1.63702 | 36908 ft | 440 kts | 119° |
| 2026-05-04 20:15 | 45.70934 | 1.71676 | 36904 ft | 440 kts | 119° |
| 2026-05-04 20:15 | 45.68405 | 1.79661 | 36909 ft | 440 kts | 119° |
| 2026-05-04 20:16 | 45.65873 | 1.87640 | 36921 ft | 441 kts | 119° |
| 2026-05-04 20:16 | 45.63342 | 1.95625 | 36918 ft | 441 kts | 120° |
| 2026-05-04 20:17 | 45.60797 | 2.03604 | 36921 ft | 442 kts | 120° |
| 2026-05-04 20:17 | 45.58241 | 2.11573 | 36916 ft | 442 kts | 120° |
| 2026-05-04 20:18 | 45.55693 | 2.19492 | 36925 ft | 442 kts | 120° |
| 2026-05-04 20:18 | 45.53126 | 2.27469 | 36918 ft | 442 kts | 120° |
| 2026-05-04 20:19 | 45.50555 | 2.35440 | 36924 ft | 443 kts | 120° |
| 2026-05-04 20:19 | 45.47977 | 2.43402 | 36928 ft | 443 kts | 120° |
| 2026-05-04 20:20 | 45.45391 | 2.51364 | 36933 ft | 443 kts | 120° |
| 2026-05-04 20:20 | 45.42791 | 2.59321 | 36936 ft | 443 kts | 120° |
| 2026-05-04 20:21 | 45.40187 | 2.67276 | 36938 ft | 443 kts | 120° |
| 2026-05-04 20:21 | 45.36278 | 2.79187 | 36945 ft | 443 kts | 120° |
| 2026-05-04 20:22 | 45.33671 | 2.87111 | 36951 ft | 443 kts | 120° |
| 2026-05-04 20:22 | 45.31061 | 2.95029 | 36965 ft | 442 kts | 120° |
| 2026-05-04 20:23 | 45.28441 | 3.02919 | 36963 ft | 442 kts | 120° |
| 2026-05-04 20:23 | 45.25812 | 3.10804 | 36958 ft | 441 kts | 120° |
| 2026-05-04 20:24 | 45.23207 | 3.18621 | 36954 ft | 441 kts | 120° |
| 2026-05-04 20:24 | 45.20584 | 3.26476 | 36961 ft | 441 kts | 120° |
| 2026-05-04 20:25 | 45.17948 | 3.34328 | 36962 ft | 441 kts | 121° |
| 2026-05-04 20:25 | 45.15306 | 3.42166 | 36957 ft | 441 kts | 121° |
| 2026-05-04 20:26 | 45.12666 | 3.50005 | 36953 ft | 441 kts | 121° |
| 2026-05-04 20:26 | 45.10019 | 3.57836 | 36958 ft | 441 kts | 121° |
| 2026-05-04 20:27 | 45.07366 | 3.65647 | 36959 ft | 441 kts | 121° |
| 2026-05-04 20:27 | 45.04706 | 3.73454 | 36958 ft | 440 kts | 121° |
| 2026-05-04 20:28 | 45.02048 | 3.81248 | 36959 ft | 440 kts | 121° |
| 2026-05-04 20:28 | 44.99402 | 3.88987 | 36958 ft | 440 kts | 121° |
| 2026-05-04 20:29 | 44.96729 | 3.96764 | 36955 ft | 440 kts | 121° |
| 2026-05-04 20:29 | 44.94049 | 4.04529 | 36964 ft | 440 kts | 121° |
| 2026-05-04 20:30 | 44.91366 | 4.12289 | 36970 ft | 440 kts | 121° |
| 2026-05-04 20:30 | 44.88681 | 4.20036 | 36975 ft | 439 kts | 121° |
| 2026-05-04 20:31 | 44.85990 | 4.27770 | 36978 ft | 439 kts | 121° |
| 2026-05-04 20:31 | 44.83301 | 4.35505 | 36979 ft | 440 kts | 121° |
| 2026-05-04 20:32 | 44.80603 | 4.43237 | 36972 ft | 440 kts | 121° |
| 2026-05-04 20:32 | 44.77892 | 4.50969 | 36974 ft | 441 kts | 121° |
| 2026-05-04 20:33 | 44.75191 | 4.58643 | 36967 ft | 441 kts | 122° |
| 2026-05-04 20:33 | 44.72468 | 4.66368 | 36968 ft | 441 kts | 122° |
| 2026-05-04 20:34 | 44.69734 | 4.74101 | 36964 ft | 442 kts | 122° |
| 2026-05-04 20:34 | 44.66998 | 4.81838 | 36963 ft | 443 kts | 122° |
| 2026-05-04 20:35 | 44.64716 | 4.88268 | 36959 ft | 443 kts | 122° |
| 2026-05-04 20:35 | 44.61956 | 4.96021 | 36958 ft | 444 kts | 122° |
| 2026-05-04 20:36 | 44.59186 | 5.03770 | 36952 ft | 445 kts | 122° |
| 2026-05-04 20:36 | 44.56401 | 5.11528 | 36958 ft | 446 kts | 122° |
| 2026-05-04 20:37 | 44.53610 | 5.19297 | 36955 ft | 446 kts | 122° |
| 2026-05-04 20:37 | 44.50815 | 5.27066 | 36956 ft | 447 kts | 122° |
| 2026-05-04 20:38 | 44.48009 | 5.34841 | 36963 ft | 448 kts | 122° |
| 2026-05-04 20:38 | 44.45190 | 5.42607 | 36966 ft | 448 kts | 122° |
| 2026-05-04 20:39 | 44.42359 | 5.50393 | 36979 ft | 449 kts | 122° |
| 2026-05-04 20:39 | 44.39518 | 5.58171 | 36979 ft | 449 kts | 122° |
| 2026-05-04 20:40 | 44.36417 | 5.65616 | 36981 ft | 444 kts | 130° |
| 2026-05-04 20:40 | 44.32957 | 5.72747 | 36978 ft | 444 kts | 130° |
| 2026-05-04 20:41 | 44.29492 | 5.79881 | 36979 ft | 444 kts | 130° |
| 2026-05-04 20:41 | 44.26017 | 5.87002 | 36981 ft | 444 kts | 130° |
| 2026-05-04 20:42 | 44.22537 | 5.94129 | 36986 ft | 445 kts | 130° |
| 2026-05-04 20:42 | 44.19049 | 6.01259 | 36985 ft | 445 kts | 130° |
| 2026-05-04 20:43 | 44.15556 | 6.08385 | 36987 ft | 445 kts | 130° |
| 2026-05-04 20:43 | 44.12052 | 6.15508 | 36984 ft | 446 kts | 130° |
| 2026-05-04 20:44 | 44.08562 | 6.22575 | 36991 ft | 447 kts | 130° |
| 2026-05-04 20:44 | 44.05040 | 6.29693 | 36992 ft | 447 kts | 130° |
| 2026-05-04 20:45 | 44.01510 | 6.36811 | 37001 ft | 448 kts | 130° |
| 2026-05-04 20:45 | 43.97969 | 6.43940 | 37010 ft | 449 kts | 130° |
| 2026-05-04 20:46 | 43.94420 | 6.51074 | 37010 ft | 449 kts | 130° |
| 2026-05-04 20:46 | 43.90866 | 6.58202 | 37025 ft | 449 kts | 130° |
| 2026-05-04 20:47 | 43.87305 | 6.65321 | 37029 ft | 449 kts | 130° |
| 2026-05-04 20:47 | 43.83750 | 6.72400 | 36694 ft | 450 kts | 131° |
| 2026-05-04 20:48 | 43.81960 | 6.75958 | 36427 ft | 450 kts | 131° |
| 2026-05-04 20:48 | 43.80173 | 6.79512 | 36169 ft | 450 kts | 131° |
| 2026-05-04 20:48 | 43.78399 | 6.83043 | 35714 ft | 446 kts | 131° |
| 2026-05-04 20:48 | 43.76624 | 6.86565 | 35150 ft | 444 kts | 131° |
| 2026-05-04 20:49 | 43.74858 | 6.90055 | 34617 ft | 441 kts | 131° |
| 2026-05-04 20:49 | 43.73103 | 6.93522 | 34076 ft | 439 kts | 131° |
| 2026-05-04 20:49 | 43.71284 | 6.96790 | 33533 ft | 430 kts | 137° |
| 2026-05-04 20:49 | 43.69340 | 6.99899 | 33052 ft | 425 kts | 137° |
| 2026-05-04 20:50 | 43.67426 | 7.02972 | 32562 ft | 421 kts | 137° |
| 2026-05-04 20:50 | 43.65528 | 7.06024 | 32071 ft | 417 kts | 137° |
| 2026-05-04 20:50 | 43.63643 | 7.09052 | 31596 ft | 413 kts | 136° |
| 2026-05-04 20:50 | 43.61780 | 7.12039 | 31126 ft | 409 kts | 136° |
| 2026-05-04 20:51 | 43.59928 | 7.15000 | 30662 ft | 406 kts | 136° |
| 2026-05-04 20:51 | 43.58090 | 7.17933 | 30200 ft | 402 kts | 136° |
| 2026-05-04 20:51 | 43.56267 | 7.20846 | 29696 ft | 400 kts | 135° |
| 2026-05-04 20:51 | 43.54674 | 7.23983 | 29247 ft | 401 kts | 124° |
| 2026-05-04 20:52 | 43.53456 | 7.27444 | 28803 ft | 401 kts | 119° |
| 2026-05-04 20:52 | 43.52321 | 7.30936 | 28362 ft | 397 kts | 119° |
| 2026-05-04 20:52 | 43.51190 | 7.34390 | 27923 ft | 394 kts | 119° |
| 2026-05-04 20:52 | 43.50060 | 7.37821 | 27495 ft | 391 kts | 119° |
| 2026-05-04 20:53 | 43.48936 | 7.41220 | 27071 ft | 388 kts | 119° |
| 2026-05-04 20:53 | 43.47818 | 7.44586 | 26649 ft | 385 kts | 119° |
| 2026-05-04 20:53 | 43.46725 | 7.47881 | 26242 ft | 382 kts | 119° |
| 2026-05-04 20:53 | 43.45629 | 7.51193 | 25821 ft | 379 kts | 119° |
| 2026-05-04 20:54 | 43.44541 | 7.54484 | 25384 ft | 377 kts | 119° |
| 2026-05-04 20:54 | 43.43456 | 7.57757 | 24954 ft | 374 kts | 119° |
| 2026-05-04 20:54 | 43.42376 | 7.61003 | 24495 ft | 372 kts | 119° |
| 2026-05-04 20:54 | 43.41302 | 7.64235 | 24048 ft | 370 kts | 118° |
| 2026-05-04 20:55 | 43.40234 | 7.67447 | 23582 ft | 369 kts | 118° |
| 2026-05-04 20:55 | 43.39168 | 7.70643 | 23075 ft | 367 kts | 118° |
| 2026-05-04 20:55 | 43.38109 | 7.73817 | 22630 ft | 363 kts | 118° |
| 2026-05-04 20:55 | 43.37062 | 7.76958 | 22167 ft | 360 kts | 118° |
| 2026-05-04 20:56 | 43.36022 | 7.80072 | 21722 ft | 357 kts | 118° |
| 2026-05-04 20:56 | 43.34987 | 7.83161 | 21288 ft | 355 kts | 118° |
| 2026-05-04 20:56 | 43.33959 | 7.86227 | 20850 ft | 352 kts | 118° |
| 2026-05-04 20:56 | 43.32939 | 7.89276 | 20414 ft | 350 kts | 118° |
| 2026-05-04 20:57 | 43.31923 | 7.92310 | 19988 ft | 349 kts | 118° |
| 2026-05-04 20:57 | 43.30911 | 7.95326 | 19561 ft | 347 kts | 118° |
| 2026-05-04 20:57 | 43.29897 | 7.98326 | 19135 ft | 346 kts | 118° |
| 2026-05-04 20:57 | 43.28885 | 8.01317 | 18716 ft | 345 kts | 118° |
| 2026-05-04 20:58 | 43.27877 | 8.04298 | 18286 ft | 344 kts | 118° |
| 2026-05-04 20:58 | 43.26870 | 8.07274 | 17834 ft | 343 kts | 118° |
| 2026-05-04 20:58 | 43.25870 | 8.10232 | 17422 ft | 340 kts | 118° |
| 2026-05-04 20:58 | 43.24878 | 8.13170 | 17013 ft | 338 kts | 118° |
| 2026-05-04 20:59 | 43.23894 | 8.16086 | 16596 ft | 336 kts | 118° |
| 2026-05-04 20:59 | 43.22911 | 8.18989 | 16204 ft | 335 kts | 118° |
| 2026-05-04 20:59 | 43.21929 | 8.21880 | 15804 ft | 333 kts | 118° |
| 2026-05-04 20:59 | 43.20965 | 8.24712 | 15414 ft | 332 kts | 118° |
| 2026-05-04 21:00 | 43.19987 | 8.27574 | 15029 ft | 331 kts | 118° |
| 2026-05-04 21:00 | 43.19014 | 8.30424 | 14631 ft | 330 kts | 118° |
| 2026-05-04 21:00 | 43.18044 | 8.33264 | 14236 ft | 329 kts | 118° |
| 2026-05-04 21:00 | 43.17079 | 8.36085 | 13839 ft | 328 kts | 118° |
| 2026-05-04 21:01 | 43.16107 | 8.38917 | 13415 ft | 326 kts | 118° |
| 2026-05-04 21:01 | 43.15145 | 8.41718 | 13016 ft | 324 kts | 118° |
| 2026-05-04 21:01 | 43.14058 | 8.44383 | 12633 ft | 318 kts | 128° |
| 2026-05-04 21:01 | 43.12755 | 8.46811 | 12237 ft | 315 kts | 129° |
| 2026-05-04 21:02 | 43.11461 | 8.49213 | 11860 ft | 313 kts | 129° |
| 2026-05-04 21:02 | 43.10177 | 8.51600 | 11466 ft | 311 kts | 129° |
| 2026-05-04 21:02 | 43.08916 | 8.53943 | 11310 ft | 300 kts | 129° |
| 2026-05-04 21:02 | 43.07689 | 8.56226 | 10981 ft | 297 kts | 129° |
| 2026-05-04 21:03 | 43.06468 | 8.58492 | 10616 ft | 295 kts | 129° |
| 2026-05-04 21:03 | 43.05250 | 8.60747 | 10259 ft | 293 kts | 129° |
| 2026-05-04 21:03 | 43.04040 | 8.62986 | 9898 ft | 292 kts | 129° |
| 2026-05-04 21:03 | 43.02842 | 8.65206 | 9510 ft | 290 kts | 129° |
| 2026-05-04 21:04 | 43.01648 | 8.67411 | 9108 ft | 288 kts | 129° |
| 2026-05-04 21:04 | 43.00462 | 8.69598 | 8714 ft | 285 kts | 129° |
| 2026-05-04 21:04 | 42.99284 | 8.71771 | 8314 ft | 283 kts | 129° |
| 2026-05-04 21:04 | 42.98116 | 8.73925 | 7919 ft | 281 kts | 128° |
| 2026-05-04 21:05 | 42.96932 | 8.76039 | 7502 ft | 278 kts | 134° |
| 2026-05-04 21:05 | 42.95476 | 8.77709 | 7185 ft | 268 kts | 150° |
| 2026-05-04 21:05 | 42.93855 | 8.78715 | 7067 ft | 245 kts | 165° |
| 2026-05-04 21:05 | 42.92250 | 8.79127 | 6950 ft | 225 kts | 177° |
| 2026-05-04 21:06 | 42.90737 | 8.79150 | 6770 ft | 213 kts | 180° |
| 2026-05-04 21:06 | 42.89291 | 8.79162 | 6533 ft | 209 kts | 180° |
| 2026-05-04 21:06 | 42.87841 | 8.79175 | 6243 ft | 208 kts | 180° |
| 2026-05-04 21:06 | 42.86401 | 8.79179 | 5940 ft | 207 kts | 180° |
| 2026-05-04 21:07 | 42.84964 | 8.79180 | 5640 ft | 206 kts | 180° |
| 2026-05-04 21:07 | 42.83533 | 8.79183 | 5334 ft | 206 kts | 180° |
| 2026-05-04 21:07 | 42.82100 | 8.79186 | 4949 ft | 209 kts | 179° |
| 2026-05-04 21:07 | 42.80606 | 8.79187 | 4380 ft | 220 kts | 179° |
| 2026-05-04 21:08 | 42.79037 | 8.79188 | 3853 ft | 228 kts | 179° |
| 2026-05-04 21:08 | 42.77476 | 8.79190 | 3611 ft | 219 kts | 179° |
| 2026-05-04 21:08 | 42.76015 | 8.79193 | 3490 ft | 201 kts | 179° |
| 2026-05-04 21:08 | 42.74644 | 8.79197 | 3405 ft | 195 kts | 179° |
| 2026-05-04 21:09 | 42.73292 | 8.79202 | 3309 ft | 194 kts | 179° |
| 2026-05-04 21:09 | 42.71943 | 8.79207 | 3223 ft | 194 kts | 179° |
| 2026-05-04 21:09 | 42.70593 | 8.79211 | 3135 ft | 194 kts | 179° |
| 2026-05-04 21:09 | 42.69241 | 8.79217 | 3046 ft | 194 kts | 179° |
| 2026-05-04 21:10 | 42.67920 | 8.79224 | 2810 ft | 194 kts | 179° |
| 2026-05-04 21:10 | 42.66567 | 8.79231 | 2528 ft | 195 kts | 179° |
| 2026-05-04 21:10 | 42.65208 | 8.79237 | 2253 ft | 194 kts | 178° |
| 2026-05-04 21:10 | 42.63886 | 8.79243 | 1991 ft | 186 kts | 178° |
| 2026-05-04 21:11 | 42.62622 | 8.79249 | 1784 ft | 176 kts | 179° |
| 2026-05-04 21:11 | 42.61419 | 8.79254 | 1510 ft | 169 kts | 179° |
| 2026-05-04 21:11 | 42.60257 | 8.79244 | 1393 ft | 166 kts | 180° |
| 2026-05-04 21:11 | 42.59117 | 8.79232 | 1209 ft | 160 kts | 180° |
| 2026-05-04 21:12 | 42.58064 | 8.79245 | 1092 ft | 144 kts | 178° |
| 2026-05-04 21:12 | 42.57076 | 8.79285 | 771 ft | 142 kts | 179° |
| 2026-05-04 21:12 | 42.56115 | 8.79277 | 531 ft | 133 kts | 180° |
| 2026-05-04 21:12 | 42.55202 | 8.79276 | 352 ft | 129 kts | 179° |
| 2026-05-04 21:13 | 42.54313 | 8.79287 | 177 ft | 127 kts | 178° |
| 2026-05-04 21:13 | 42.53467 | 8.79297 | 120 ft | 107 kts | 180° |
| 2026-05-04 21:13 | 42.53011 | 8.79298 | 153 ft | 35 kts | 180° |
| 2026-05-04 21:13 | 42.52795 | 8.79299 | 169 ft | 28 kts | 179° |
| 2026-05-04 21:14 | 42.52637 | 8.79300 | 182 ft | 16 kts | 180° |
| 2026-05-04 21:14 | 42.52557 | 8.79300 | 188 ft | 9 kts | 180° |
| 2026-05-04 21:14 | 42.52512 | 8.79300 | 191 ft | 5 kts | 180° |
| 2026-05-04 21:14 | 42.52458 | 8.79297 | 200 ft | 7 kts | 192° |
| 2026-05-04 21:15 | 42.52436 | 8.79264 | 202 ft | 5 kts | 254° |
| 2026-05-04 21:15 | 42.52435 | 8.79225 | 194 ft | 2 kts | 270° |
| 2026-05-04 21:15 | 42.52435 | 8.79197 | 194 ft | 8 kts | 270° |
| 2026-05-04 21:15 | 42.52465 | 8.79158 | 196 ft | 6 kts | 0° |
| 2026-05-04 21:16 | 42.52493 | 8.79135 | 203 ft | 4 kts | 309° |
| 2026-05-04 21:16 | 42.52505 | 8.79110 | 200 ft | 2 kts | 302° |
| 2026-05-04 21:16 | 42.52512 | 8.79095 | 192 ft | 2 kts | 300° |
| 2026-05-04 21:16 | 42.52517 | 8.79083 | 195 ft | 1 kts | 300° |
| 2026-05-04 21:17 | 42.52518 | 8.79080 | 194 ft | 0 kts | 300° |